createdAt,value
2017-12-05T00:00:13.390Z,5.04
2017-12-05T00:01:16.611Z,4.99
2017-12-05T00:02:19.547Z,4.97
2017-12-05T00:03:22.754Z,4.95
2017-12-05T00:04:25.717Z,4.93
2017-12-05T00:05:28.685Z,4.94
2017-12-05T00:06:31.639Z,4.95
2017-12-05T00:07:34.599Z,5.01
2017-12-05T00:08:37.514Z,4.95
2017-12-05T00:09:40.758Z,4.97
2017-12-05T00:10:44.201Z,4.89
2017-12-05T00:11:47.309Z,4.92
2017-12-05T00:12:50.296Z,4.92
2017-12-05T00:13:53.306Z,4.89
2017-12-05T00:14:56.387Z,4.88
2017-12-05T00:15:59.603Z,4.86
2017-12-05T00:17:03.068Z,4.87
2017-12-05T00:18:06.484Z,4.92
2017-12-05T00:19:11.041Z,4.81
2017-12-05T00:20:14.845Z,4.82
2017-12-05T00:21:18.162Z,4.79
2017-12-05T00:22:22.428Z,4.80
2017-12-05T00:23:25.775Z,4.83
2017-12-05T00:24:28.984Z,4.86
2017-12-05T00:25:31.963Z,4.84
2017-12-05T00:26:35.242Z,4.95
2017-12-05T00:27:39.100Z,4.78
2017-12-05T00:28:43.742Z,4.81
2017-12-05T00:29:47.076Z,4.75
2017-12-05T00:30:50.064Z,4.78
2017-12-05T00:31:52.962Z,4.79
2017-12-05T00:32:55.949Z,4.78
2017-12-05T00:33:58.971Z,4.76
2017-12-05T00:35:02.239Z,4.85
2017-12-05T00:36:05.283Z,4.77
2017-12-05T00:37:08.335Z,4.75
2017-12-05T00:38:11.361Z,4.77
2017-12-05T00:39:14.713Z,4.77
2017-12-05T00:42:46.441Z,4.78
2017-12-05T00:43:49.810Z,4.71
2017-12-05T00:44:52.843Z,4.77
2017-12-05T00:45:56.819Z,4.74
2017-12-05T00:47:00.201Z,4.86
2017-12-05T00:48:03.909Z,4.80
2017-12-05T00:49:07.915Z,4.75
2017-12-05T00:50:11.377Z,4.78
2017-12-05T00:51:14.942Z,4.77
2017-12-05T00:52:17.939Z,4.88
2017-12-05T00:53:20.925Z,4.81
2017-12-05T00:54:23.891Z,4.74
2017-12-05T00:55:27.173Z,4.80
2017-12-05T00:56:30.139Z,4.72
2017-12-05T00:57:33.139Z,4.71
2017-12-05T00:58:36.144Z,4.70
2017-12-05T00:59:39.132Z,4.70
2017-12-05T01:00:42.501Z,4.66
2017-12-05T01:01:46.099Z,4.67
2017-12-05T01:02:49.108Z,4.67
2017-12-05T01:03:52.127Z,4.62
2017-12-05T01:04:55.105Z,4.68
2017-12-05T01:05:58.119Z,4.66
2017-12-05T01:07:01.090Z,4.67
2017-12-05T01:08:04.412Z,4.63
2017-12-05T01:09:07.449Z,4.57
2017-12-05T01:10:10.457Z,4.53
2017-12-05T01:11:13.421Z,4.63
2017-12-05T01:12:16.489Z,4.52
2017-12-05T01:13:19.513Z,4.56
2017-12-05T01:14:22.915Z,4.56
2017-12-05T01:15:25.975Z,4.58
2017-12-05T01:16:29.076Z,4.56
2017-12-05T01:17:33.006Z,4.54
2017-12-05T01:18:36.064Z,4.64
2017-12-05T01:19:39.056Z,4.60
2017-12-05T01:20:42.340Z,4.60
2017-12-05T01:21:45.287Z,4.63
2017-12-05T01:22:48.272Z,4.63
2017-12-05T01:23:51.243Z,4.65
2017-12-05T01:24:54.203Z,4.66
2017-12-05T01:25:57.164Z,4.67
2017-12-05T01:27:00.715Z,4.69
2017-12-05T01:28:03.749Z,4.71
2017-12-05T01:29:06.767Z,4.67
2017-12-05T01:30:09.824Z,4.61
2017-12-05T01:31:12.736Z,4.58
2017-12-05T01:32:15.680Z,4.62
2017-12-05T01:33:18.989Z,4.61
2017-12-05T01:34:21.859Z,4.67
2017-12-05T01:35:24.781Z,4.67
2017-12-05T01:36:27.693Z,4.55
2017-12-05T01:37:30.667Z,4.69
2017-12-05T01:38:34.541Z,4.57
2017-12-05T01:39:37.422Z,4.59
2017-12-05T01:40:40.336Z,4.61
2017-12-05T01:41:43.293Z,4.60
2017-12-05T01:42:46.288Z,4.57
2017-12-05T01:43:49.295Z,4.50
2017-12-05T01:44:52.312Z,4.51
2017-12-05T01:45:55.552Z,4.58
2017-12-05T01:46:58.667Z,4.56
2017-12-05T01:48:01.558Z,4.53
2017-12-05T01:49:04.443Z,4.54
2017-12-05T01:50:07.352Z,4.49
2017-12-05T01:51:10.261Z,4.52
2017-12-05T01:52:13.541Z,4.47
2017-12-05T01:53:16.667Z,4.42
2017-12-05T01:59:19.237Z,4.39
2017-12-05T02:00:22.094Z,4.39
2017-12-05T02:01:25.042Z,4.42
2017-12-05T02:02:27.961Z,4.38
2017-12-05T02:03:30.939Z,4.35
2017-12-05T02:04:34.064Z,4.36
2017-12-05T02:05:37.493Z,4.39
2017-12-05T02:06:40.455Z,4.35
2017-12-05T02:07:43.439Z,4.35
2017-12-05T02:08:46.421Z,4.33
2017-12-05T02:09:49.373Z,4.34
2017-12-05T02:10:52.433Z,4.35
2017-12-05T02:11:55.715Z,4.32
2017-12-05T02:12:58.639Z,4.31
2017-12-05T02:14:01.675Z,4.31
2017-12-05T02:15:04.650Z,4.34
2017-12-05T02:16:07.654Z,4.31
2017-12-05T02:17:10.546Z,4.26
2017-12-05T02:18:13.998Z,4.31
2017-12-05T02:19:17.045Z,4.26
2017-12-05T02:20:20.034Z,4.31
2017-12-05T02:21:23.190Z,4.27
2017-12-05T02:22:26.162Z,4.28
2017-12-05T02:23:29.144Z,4.29
2017-12-05T02:24:32.570Z,4.35
2017-12-05T02:25:35.483Z,4.25
2017-12-05T02:26:38.467Z,4.28
2017-12-05T02:27:41.427Z,4.28
2017-12-05T02:28:44.378Z,4.27
2017-12-05T02:29:47.346Z,4.28
2017-12-05T02:30:50.607Z,4.26
2017-12-05T02:31:53.526Z,4.22
2017-12-05T02:32:56.484Z,4.22
2017-12-05T02:33:59.467Z,4.24
2017-12-05T02:35:02.403Z,4.21
2017-12-05T02:36:05.397Z,4.25
2017-12-05T02:37:08.594Z,4.20
2017-12-05T02:38:11.520Z,4.18
2017-12-05T02:39:14.546Z,4.19
2017-12-05T02:40:17.516Z,4.15
2017-12-05T02:41:20.563Z,4.19
2017-12-05T02:42:23.524Z,4.15
2017-12-05T02:43:26.948Z,4.15
2017-12-05T02:44:29.927Z,4.16
2017-12-05T02:45:32.873Z,4.08
2017-12-05T02:46:35.843Z,4.11
2017-12-05T02:47:38.783Z,4.14
2017-12-05T02:48:41.806Z,4.21
2017-12-05T02:49:45.028Z,4.14
2017-12-05T02:50:48.053Z,4.05
2017-12-05T02:51:51.013Z,4.02
2017-12-05T02:52:53.996Z,4.06
2017-12-05T02:53:56.919Z,4.08
2017-12-05T02:54:59.946Z,4.08
2017-12-05T02:56:03.248Z,4.03
2017-12-05T02:57:06.193Z,4.15
2017-12-05T02:58:09.203Z,4.05
2017-12-05T02:59:12.199Z,4.08
2017-12-05T03:00:15.168Z,4.09
2017-12-05T03:01:18.099Z,4.10
2017-12-05T03:02:21.464Z,4.08
2017-12-05T03:03:24.465Z,4.03
2017-12-05T03:04:27.507Z,4.06
2017-12-05T03:05:30.524Z,4.06
2017-12-05T03:06:33.539Z,4.11
2017-12-05T03:07:36.756Z,4.01
2017-12-05T03:08:40.048Z,4.01
2017-12-05T03:09:43.001Z,3.99
2017-12-05T03:10:45.981Z,4.03
2017-12-05T03:11:48.828Z,4.01
2017-12-05T03:12:52.650Z,3.96
2017-12-05T03:13:55.615Z,3.93
2017-12-05T03:14:58.947Z,3.93
2017-12-05T03:16:01.867Z,3.95
2017-12-05T03:17:04.756Z,3.95
2017-12-05T03:18:07.588Z,3.91
2017-12-05T03:19:10.464Z,3.99
2017-12-05T03:20:13.549Z,3.97
2017-12-05T03:21:16.720Z,3.89
2017-12-05T03:22:19.577Z,3.95
2017-12-05T03:23:22.435Z,3.91
2017-12-05T03:24:25.355Z,3.90
2017-12-05T03:25:28.271Z,3.90
2017-12-05T03:26:31.250Z,3.90
2017-12-05T03:27:34.586Z,3.89
2017-12-05T03:28:37.478Z,3.80
2017-12-05T03:29:40.358Z,3.88
2017-12-05T03:30:43.237Z,3.80
2017-12-05T03:31:46.153Z,3.79
2017-12-05T03:32:49.121Z,3.83
2017-12-05T03:33:52.411Z,3.84
2017-12-05T03:34:55.378Z,3.80
2017-12-05T03:35:58.320Z,3.83
2017-12-05T03:37:01.238Z,3.86
2017-12-05T03:38:04.163Z,3.83
2017-12-05T03:39:07.134Z,3.77
2017-12-05T03:40:10.383Z,3.79
2017-12-05T03:41:13.376Z,3.74
2017-12-05T03:42:16.416Z,3.79
2017-12-05T03:43:19.416Z,3.78
2017-12-05T03:44:22.384Z,3.83
2017-12-05T03:45:25.330Z,3.72
2017-12-05T03:46:28.795Z,3.72
2017-12-05T03:47:31.728Z,3.77
2017-12-05T03:48:34.756Z,3.77
2017-12-05T03:49:37.691Z,3.82
2017-12-05T03:50:40.696Z,3.77
2017-12-05T03:51:43.721Z,3.78
2017-12-05T03:52:47.015Z,3.77
2017-12-05T03:53:49.856Z,3.77
2017-12-05T03:54:52.713Z,3.75
2017-12-05T03:55:55.560Z,3.73
2017-12-05T03:56:58.501Z,3.73
2017-12-05T03:58:01.406Z,3.70
2017-12-05T03:59:04.755Z,3.77
2017-12-05T04:00:07.666Z,3.68
2017-12-05T04:01:10.627Z,3.71
2017-12-05T04:02:13.604Z,3.70
2017-12-05T04:04:33.402Z,3.68
2017-12-05T04:05:36.706Z,3.70
2017-12-05T04:06:39.670Z,3.72
2017-12-05T04:07:42.619Z,3.69
2017-12-05T04:08:45.624Z,3.69
2017-12-05T04:09:48.571Z,3.65
2017-12-05T04:10:51.856Z,3.67
2017-12-05T04:11:54.808Z,3.74
2017-12-05T04:12:57.774Z,3.69
2017-12-05T04:14:00.731Z,3.65
2017-12-05T04:15:03.683Z,3.66
2017-12-05T04:16:06.699Z,3.71
2017-12-05T04:17:09.954Z,3.73
2017-12-05T04:18:12.883Z,3.80
2017-12-05T04:19:15.820Z,3.71
2017-12-05T04:20:18.821Z,3.68
2017-12-05T04:21:21.775Z,3.71
2017-12-05T04:22:24.647Z,3.64
2017-12-05T04:23:27.834Z,3.65
2017-12-05T04:24:30.689Z,3.63
2017-12-05T04:25:33.582Z,3.66
2017-12-05T04:26:36.502Z,3.67
2017-12-05T04:27:39.387Z,3.65
2017-12-05T04:28:42.237Z,3.62
2017-12-05T04:29:45.403Z,3.57
2017-12-05T04:30:48.439Z,3.56
2017-12-05T04:31:51.539Z,3.59
2017-12-05T04:32:54.483Z,3.57
2017-12-05T04:33:57.564Z,3.62
2017-12-05T04:35:00.542Z,3.55
2017-12-05T04:36:03.876Z,3.60
2017-12-05T04:37:06.845Z,3.61
2017-12-05T04:38:09.805Z,3.59
2017-12-05T04:39:12.828Z,3.60
2017-12-05T04:40:21.661Z,3.59
2017-12-05T04:41:24.605Z,3.53
2017-12-05T04:42:27.740Z,3.55
2017-12-05T04:43:30.613Z,3.57
2017-12-05T04:44:33.390Z,3.54
2017-12-05T04:46:50.035Z,3.52
2017-12-05T04:47:52.869Z,3.52
2017-12-05T04:48:55.720Z,3.49
2017-12-05T04:49:58.572Z,3.48
2017-12-05T04:51:01.414Z,3.51
2017-12-05T04:52:04.238Z,3.58
2017-12-05T04:53:07.040Z,3.51
2017-12-05T04:54:09.951Z,3.51
2017-12-05T04:55:12.874Z,3.47
2017-12-05T04:56:15.760Z,3.53
2017-12-05T04:57:18.767Z,3.52
2017-12-05T04:58:21.667Z,3.49
2017-12-05T04:59:24.843Z,3.51
2017-12-05T05:00:27.707Z,3.50
2017-12-05T05:01:30.734Z,3.52
2017-12-05T05:02:33.646Z,3.50
2017-12-05T05:03:36.607Z,3.50
2017-12-05T05:04:39.656Z,3.48
2017-12-05T05:05:42.894Z,3.47
2017-12-05T05:06:45.981Z,3.48
2017-12-05T05:07:48.930Z,3.51
2017-12-05T05:08:51.981Z,3.53
2017-12-05T05:09:54.962Z,3.49
2017-12-05T05:10:57.931Z,3.47
2017-12-05T05:12:01.392Z,3.51
2017-12-05T05:13:04.340Z,3.48
2017-12-05T05:14:07.331Z,3.53
2017-12-05T05:15:10.259Z,3.45
2017-12-05T05:16:13.362Z,3.48
2017-12-05T05:17:16.513Z,3.46
2017-12-05T05:18:19.793Z,3.41
2017-12-05T05:19:22.940Z,3.43
2017-12-05T05:20:25.987Z,3.45
2017-12-05T05:21:29.156Z,3.42
2017-12-05T05:22:32.235Z,3.39
2017-12-05T05:23:35.368Z,3.49
2017-12-05T05:24:38.774Z,3.41
2017-12-05T05:25:41.810Z,3.43
2017-12-05T05:26:44.935Z,3.49
2017-12-05T05:27:47.971Z,3.38
2017-12-05T05:28:51.090Z,3.42
2017-12-05T05:29:54.242Z,3.35
2017-12-05T05:30:57.558Z,3.43
2017-12-05T05:32:00.534Z,3.40
2017-12-05T05:33:03.651Z,3.34
2017-12-05T05:34:06.598Z,3.36
2017-12-05T05:35:09.610Z,3.34
2017-12-05T05:36:12.558Z,3.31
2017-12-05T05:37:15.839Z,3.36
2017-12-05T05:38:18.811Z,3.37
2017-12-05T05:39:21.749Z,3.34
2017-12-05T05:40:24.726Z,3.38
2017-12-05T05:41:27.863Z,3.35
2017-12-05T05:42:30.865Z,3.35
2017-12-05T05:43:34.272Z,3.35
2017-12-05T05:44:37.345Z,3.38
2017-12-05T05:45:40.526Z,3.28
2017-12-05T05:46:43.564Z,3.35
2017-12-05T05:47:46.607Z,3.35
2017-12-05T05:48:49.714Z,3.41
2017-12-05T05:49:52.983Z,3.42
2017-12-05T05:50:55.983Z,3.35
2017-12-05T05:51:59.027Z,3.34
2017-12-05T05:53:02.058Z,3.32
2017-12-05T05:54:05.020Z,3.33
2017-12-05T05:55:08.067Z,3.34
2017-12-05T05:56:11.411Z,3.36
2017-12-05T05:57:14.290Z,3.37
2017-12-05T05:58:17.136Z,3.32
2017-12-05T05:59:20.133Z,3.31
2017-12-05T06:00:23.050Z,3.33
2017-12-05T06:01:25.960Z,3.41
2017-12-05T06:02:29.305Z,3.35
2017-12-05T06:03:32.404Z,3.35
2017-12-05T06:04:35.277Z,3.38
2017-12-05T06:05:38.216Z,3.37
2017-12-05T06:06:41.280Z,3.34
2017-12-05T06:07:44.250Z,3.33
2017-12-05T06:08:47.524Z,3.35
2017-12-05T06:09:50.518Z,3.35
2017-12-05T06:10:53.538Z,3.35
2017-12-05T06:11:56.666Z,3.34
2017-12-05T06:12:59.720Z,3.29
2017-12-05T06:14:02.735Z,3.32
2017-12-05T06:15:06.176Z,3.29
2017-12-05T06:16:09.186Z,3.33
2017-12-05T06:17:12.206Z,3.29
2017-12-05T06:18:15.182Z,3.34
2017-12-05T06:19:18.227Z,3.30
2017-12-05T06:20:21.190Z,3.26
2017-12-05T06:21:24.490Z,3.23
2017-12-05T06:22:27.522Z,3.20
2017-12-05T06:23:30.535Z,3.23
2017-12-05T06:24:33.568Z,3.26
2017-12-05T06:25:36.535Z,3.40
2017-12-05T06:26:39.544Z,3.31
2017-12-05T06:27:42.644Z,3.36
2017-12-05T06:28:45.675Z,3.28
2017-12-05T06:29:48.863Z,3.31
2017-12-05T06:30:52.403Z,3.26
2017-12-05T06:31:55.412Z,3.21
2017-12-05T06:32:59.491Z,3.20
2017-12-05T06:34:02.911Z,3.22
2017-12-05T06:35:08.063Z,3.23
2017-12-05T06:36:11.991Z,3.21
2017-12-05T06:37:15.000Z,3.26
2017-12-05T06:38:17.977Z,3.09
2017-12-05T06:39:21.087Z,3.43
2017-12-05T06:40:24.470Z,3.14
2017-12-05T06:41:27.405Z,3.04
2017-12-05T06:42:30.435Z,3.08
2017-12-05T06:43:33.397Z,3.06
2017-12-05T06:44:36.358Z,3.06
2017-12-05T06:45:40.301Z,3.11
2017-12-05T06:46:43.574Z,3.03
2017-12-05T06:47:46.722Z,3.23
2017-12-05T06:48:49.710Z,3.21
2017-12-05T06:49:52.740Z,3.24
2017-12-05T06:50:55.739Z,3.11
2017-12-05T06:51:58.755Z,3.09
2017-12-05T06:53:02.296Z,3.44
2017-12-05T06:54:05.273Z,3.10
2017-12-05T06:55:08.276Z,3.00
2017-12-05T06:56:11.271Z,2.83
2017-12-05T06:57:14.239Z,2.87
2017-12-05T06:58:17.295Z,3.23
2017-12-05T06:59:20.674Z,3.31
2017-12-05T07:00:23.650Z,3.23
2017-12-05T07:01:26.752Z,3.30
2017-12-05T07:02:29.800Z,3.23
2017-12-05T07:03:32.765Z,3.03
2017-12-05T07:04:35.717Z,3.07
2017-12-05T07:05:39.160Z,3.11
2017-12-05T07:06:42.215Z,3.20
2017-12-05T07:07:45.195Z,3.22
2017-12-05T07:08:48.220Z,3.27
2017-12-05T07:09:51.766Z,3.45
2017-12-05T07:10:54.771Z,3.27
2017-12-05T07:11:57.715Z,3.18
2017-12-05T07:13:00.785Z,3.28
2017-12-05T07:14:03.755Z,3.47
2017-12-05T07:15:06.825Z,3.37
2017-12-05T07:16:10.868Z,3.58
2017-12-05T07:17:15.460Z,3.47
2017-12-05T07:18:18.564Z,3.28
2017-12-05T07:19:21.504Z,3.29
2017-12-05T07:20:24.530Z,3.53
2017-12-05T07:21:27.564Z,3.15
2017-12-05T07:22:30.536Z,3.20
2017-12-05T07:23:33.969Z,3.57
2017-12-05T07:24:36.987Z,3.31
2017-12-05T07:25:40.008Z,3.28
2017-12-05T07:26:43.024Z,3.25
2017-12-05T07:27:46.851Z,3.40
2017-12-05T07:28:50.106Z,3.36
2017-12-05T07:29:53.106Z,3.22
2017-12-05T07:30:56.136Z,3.59
2017-12-05T07:31:59.611Z,3.39
2017-12-05T07:33:02.626Z,3.37
2017-12-05T07:34:05.609Z,3.34
2017-12-05T07:35:08.599Z,3.46
2017-12-05T07:36:11.588Z,3.68
2017-12-05T07:37:14.556Z,3.39
2017-12-05T07:38:17.559Z,3.34
2017-12-05T07:39:20.626Z,3.35
2017-12-05T07:40:23.869Z,3.12
2017-12-05T07:41:27.014Z,3.19
2017-12-05T07:42:30.545Z,3.20
2017-12-05T07:43:34.496Z,3.30
2017-12-05T07:44:37.556Z,3.42
2017-12-05T07:45:40.545Z,3.44
2017-12-05T07:46:43.539Z,3.59
2017-12-05T07:47:46.672Z,3.69
2017-12-05T07:48:49.659Z,3.97
2017-12-05T07:49:52.683Z,3.67
2017-12-05T07:50:55.638Z,3.51
2017-12-05T07:51:58.962Z,3.46
2017-12-05T07:53:02.028Z,3.44
2017-12-05T07:54:05.066Z,3.46
2017-12-05T07:55:08.061Z,3.45
2017-12-05T07:56:11.033Z,3.40
2017-12-05T07:57:14.116Z,3.45
2017-12-05T07:58:17.596Z,3.48
2017-12-05T07:59:20.631Z,3.44
2017-12-05T08:00:23.777Z,3.41
2017-12-05T08:01:26.775Z,3.66
2017-12-05T08:02:29.759Z,3.84
2017-12-05T08:03:32.857Z,3.70
2017-12-05T08:04:36.194Z,3.64
2017-12-05T08:05:39.226Z,3.83
2017-12-05T08:06:42.320Z,3.64
2017-12-05T08:07:45.422Z,3.58
2017-12-05T08:08:48.422Z,3.55
2017-12-05T08:09:51.427Z,3.58
2017-12-05T08:10:54.759Z,3.76
2017-12-05T08:11:57.815Z,3.61
2017-12-05T08:13:00.916Z,3.72
2017-12-05T08:14:03.910Z,3.65
2017-12-05T08:15:06.933Z,3.51
2017-12-05T08:16:09.972Z,3.52
2017-12-05T08:17:13.375Z,3.49
2017-12-05T08:18:16.288Z,3.56
2017-12-05T08:19:19.410Z,3.48
2017-12-05T08:20:22.399Z,3.41
2017-12-05T08:21:25.284Z,3.41
2017-12-05T08:22:28.305Z,3.42
2017-12-05T08:23:31.387Z,3.40
2017-12-05T08:24:34.221Z,3.37
2017-12-05T08:25:37.180Z,3.35
2017-12-05T08:26:40.098Z,3.40
2017-12-05T08:27:43.023Z,3.33
2017-12-05T08:28:46.096Z,3.36
2017-12-05T08:29:49.385Z,3.27
2017-12-05T08:30:52.423Z,3.38
2017-12-05T08:31:55.433Z,3.43
2017-12-05T08:32:58.468Z,3.36
2017-12-05T08:34:02.546Z,3.81
2017-12-05T08:35:05.542Z,3.53
2017-12-05T08:36:08.499Z,3.60
2017-12-05T08:37:11.594Z,3.58
2017-12-05T08:38:14.597Z,3.65
2017-12-05T08:39:17.803Z,4.07
2017-12-05T08:40:20.733Z,3.72
2017-12-05T08:41:23.978Z,3.77
2017-12-05T08:42:26.956Z,3.65
2017-12-05T08:43:29.975Z,3.72
2017-12-05T08:44:32.998Z,3.68
2017-12-05T08:45:36.109Z,3.77
2017-12-05T08:46:39.088Z,3.91
2017-12-05T08:47:42.532Z,4.20
2017-12-05T08:48:45.762Z,3.87
2017-12-05T08:49:48.766Z,3.76
2017-12-05T08:50:52.548Z,3.70
2017-12-05T08:51:55.626Z,3.87
2017-12-05T08:52:59.727Z,3.73
2017-12-05T08:54:03.165Z,3.98
2017-12-05T08:55:06.032Z,3.78
2017-12-05T08:56:08.947Z,3.71
2017-12-05T08:57:11.939Z,3.67
2017-12-05T08:58:14.931Z,3.67
2017-12-05T08:59:17.889Z,3.48
2017-12-05T09:00:21.310Z,3.55
2017-12-05T09:01:24.340Z,3.48
2017-12-05T09:02:27.335Z,3.61
2017-12-05T09:03:33.056Z,3.58
2017-12-05T09:04:36.105Z,3.47
2017-12-05T09:05:39.152Z,4.68
2017-12-05T09:06:42.135Z,4.22
2017-12-05T09:07:45.174Z,4.18
2017-12-05T09:08:48.098Z,4.93
2017-12-05T09:09:51.178Z,4.28
2017-12-05T09:10:54.195Z,4.28
2017-12-05T09:11:57.561Z,4.26
2017-12-05T09:13:00.634Z,4.04
2017-12-05T09:14:03.506Z,4.12
2017-12-05T09:15:06.502Z,4.64
2017-12-05T09:16:09.607Z,4.50
2017-12-05T09:17:12.607Z,4.24
2017-12-05T09:18:15.981Z,4.03
2017-12-05T09:19:19.026Z,4.74
2017-12-05T09:20:22.053Z,4.65
2017-12-05T09:21:25.094Z,4.21
2017-12-05T09:22:28.101Z,4.48
2017-12-05T09:24:33.196Z,4.48
2017-12-05T09:25:36.683Z,4.58
2017-12-05T09:26:39.752Z,4.34
2017-12-05T09:28:53.955Z,4.23
2017-12-05T09:29:57.228Z,4.92
2017-12-05T09:31:00.298Z,4.59
2017-12-05T09:32:03.254Z,4.44
2017-12-05T09:33:06.324Z,4.31
2017-12-05T09:34:09.371Z,4.58
2017-12-05T09:35:13.270Z,4.35
2017-12-05T09:36:16.259Z,4.30
2017-12-05T09:37:19.299Z,4.30
2017-12-05T09:38:22.371Z,4.59
2017-12-05T09:39:25.423Z,4.41
2017-12-05T09:40:28.419Z,4.31
2017-12-05T09:41:31.815Z,4.45
2017-12-05T09:42:34.755Z,4.46
2017-12-05T09:43:37.821Z,4.18
2017-12-05T09:44:40.896Z,4.37
2017-12-05T09:45:43.890Z,4.27
2017-12-05T09:46:46.913Z,4.31
2017-12-05T09:47:50.382Z,4.23
2017-12-05T09:48:53.361Z,4.16
2017-12-05T09:49:56.327Z,4.08
2017-12-05T09:50:59.295Z,4.40
2017-12-05T09:52:02.366Z,4.40
2017-12-05T09:53:05.343Z,4.78
2017-12-05T09:54:08.749Z,4.77
2017-12-05T09:55:11.806Z,4.83
2017-12-05T09:56:14.800Z,4.45
2017-12-05T09:57:17.838Z,4.54
2017-12-05T09:58:20.975Z,4.59
2017-12-05T09:59:24.057Z,4.38
2017-12-05T10:00:27.433Z,4.63
2017-12-05T10:01:30.423Z,4.36
2017-12-05T10:02:33.440Z,4.37
2017-12-05T10:03:36.494Z,4.29
2017-12-05T10:04:39.487Z,4.35
2017-12-05T10:05:42.427Z,4.18
2017-12-05T10:06:45.843Z,4.24
2017-12-05T10:07:48.925Z,4.42
2017-12-05T10:08:51.886Z,4.96
2017-12-05T10:09:54.865Z,4.88
2017-12-05T10:10:57.856Z,4.80
2017-12-05T10:12:00.877Z,4.67
2017-12-05T10:13:04.254Z,4.48
2017-12-05T10:14:07.214Z,4.58
2017-12-05T10:15:10.167Z,4.44
2017-12-05T10:16:13.267Z,4.40
2017-12-05T10:17:16.250Z,4.33
2017-12-05T10:18:19.308Z,4.32
2017-12-05T10:19:22.354Z,4.33
2017-12-05T10:20:25.351Z,4.23
2017-12-05T10:21:28.419Z,4.21
2017-12-05T10:22:31.466Z,4.11
2017-12-05T10:23:34.788Z,4.21
2017-12-05T10:24:38.272Z,4.32
2017-12-05T10:25:41.302Z,4.23
2017-12-05T10:26:44.678Z,4.17
2017-12-05T10:27:47.642Z,4.79
2017-12-05T10:28:50.576Z,4.61
2017-12-05T10:29:53.489Z,4.41
2017-12-05T10:30:56.809Z,4.42
2017-12-05T10:31:59.742Z,4.18
2017-12-05T10:33:02.723Z,4.25
2017-12-05T10:34:05.715Z,4.31
2017-12-05T10:35:08.838Z,4.22
2017-12-05T10:36:11.913Z,4.75
2017-12-05T10:37:15.699Z,5.15
2017-12-05T10:38:18.662Z,4.90
2017-12-05T10:39:21.640Z,4.92
2017-12-05T10:40:24.622Z,4.95
2017-12-05T10:41:27.691Z,5.02
2017-12-05T10:42:30.667Z,4.68
2017-12-05T10:43:34.023Z,4.63
2017-12-05T10:44:37.056Z,4.53
2017-12-05T10:45:40.166Z,5.05
2017-12-05T10:46:43.517Z,4.97
2017-12-05T10:47:46.579Z,4.79
2017-12-05T10:48:50.107Z,4.52
2017-12-05T10:49:53.388Z,4.71
2017-12-05T10:50:56.399Z,4.69
2017-12-05T10:52:00.335Z,4.73
2017-12-05T10:53:03.335Z,4.41
2017-12-05T10:54:06.358Z,4.60
2017-12-05T10:55:10.266Z,4.53
2017-12-05T10:56:13.827Z,4.45
2017-12-05T10:57:16.832Z,4.79
2017-12-05T10:58:19.978Z,5.37
2017-12-05T10:59:22.934Z,4.79
2017-12-05T11:00:25.998Z,5.04
2017-12-05T11:01:29.106Z,4.60
2017-12-05T11:02:32.380Z,4.71
2017-12-05T11:03:35.469Z,4.88
2017-12-05T11:04:38.519Z,4.79
2017-12-05T11:05:41.455Z,4.52
2017-12-05T11:06:44.431Z,4.82
2017-12-05T11:07:48.370Z,4.60
2017-12-05T11:08:51.745Z,4.45
2017-12-05T11:09:54.734Z,4.55
2017-12-05T11:10:57.871Z,4.60
2017-12-05T11:12:00.919Z,4.43
2017-12-05T11:13:03.920Z,4.71
2017-12-05T11:14:07.102Z,4.67
2017-12-05T11:15:10.578Z,4.78
2017-12-05T11:16:13.946Z,4.73
2017-12-05T11:17:17.039Z,4.68
2017-12-05T11:18:20.569Z,4.62
2017-12-05T11:19:23.678Z,4.48
2017-12-05T11:20:26.826Z,4.56
2017-12-05T11:21:30.381Z,4.64
2017-12-05T11:22:33.534Z,4.94
2017-12-05T11:23:36.476Z,4.61
2017-12-05T11:24:39.468Z,4.58
2017-12-05T11:25:42.667Z,4.53
2017-12-05T11:26:45.779Z,4.51
2017-12-05T11:27:49.194Z,4.54
2017-12-05T11:28:52.216Z,4.55
2017-12-05T11:29:55.150Z,4.73
2017-12-05T11:30:58.185Z,4.86
2017-12-05T11:32:01.664Z,4.57
2017-12-05T11:33:04.728Z,4.80
2017-12-05T11:34:08.951Z,4.89
2017-12-05T11:35:11.967Z,4.93
2017-12-05T11:36:15.041Z,4.81
2017-12-05T11:37:18.286Z,4.76
2017-12-05T11:38:21.401Z,4.76
2017-12-05T11:39:24.442Z,4.84
2017-12-05T11:40:28.013Z,4.78
2017-12-05T11:41:31.052Z,4.77
2017-12-05T11:42:34.341Z,4.92
2017-12-05T11:43:37.460Z,4.97
2017-12-05T11:44:41.259Z,4.81
2017-12-05T11:45:44.700Z,4.79
2017-12-05T11:46:47.648Z,4.93
2017-12-05T11:47:50.582Z,4.98
2017-12-05T11:48:54.410Z,4.85
2017-12-05T11:50:00.343Z,4.90
2017-12-05T11:51:04.019Z,4.94
2017-12-05T11:52:07.084Z,4.85
2017-12-05T11:53:10.796Z,5.04
2017-12-05T11:54:14.338Z,4.88
2017-12-05T11:55:18.433Z,4.92
2017-12-05T11:56:21.407Z,4.89
2017-12-05T11:57:24.460Z,4.87
2017-12-05T11:58:27.938Z,4.93
2017-12-05T11:59:31.592Z,4.88
2017-12-05T12:00:35.119Z,4.91
2017-12-05T12:01:38.138Z,4.85
2017-12-05T12:02:41.518Z,4.99
2017-12-05T12:03:44.559Z,5.02
2017-12-05T12:04:49.390Z,4.95
2017-12-05T12:05:53.200Z,5.03
2017-12-05T12:06:56.337Z,4.95
2017-12-05T12:07:59.627Z,4.92
2017-12-05T12:09:02.621Z,5.00
2017-12-05T12:10:06.489Z,5.01
2017-12-05T12:11:12.420Z,4.94
2017-12-05T12:12:17.235Z,4.90
2017-12-05T12:13:26.882Z,4.93
2017-12-05T12:14:30.574Z,4.89
2017-12-05T12:15:34.873Z,4.91
2017-12-05T12:16:38.871Z,4.85
2017-12-05T12:17:41.929Z,5.04
2017-12-05T12:18:45.421Z,4.95
2017-12-05T12:19:49.075Z,4.99
2017-12-05T12:20:56.205Z,4.94
2017-12-05T12:21:59.728Z,4.90
2017-12-05T12:23:07.513Z,4.86
2017-12-05T12:24:11.077Z,4.89
2017-12-05T12:25:16.112Z,4.98
2017-12-05T12:26:19.079Z,4.99
2017-12-05T12:27:22.860Z,5.00
2017-12-05T12:28:25.952Z,4.95
2017-12-05T12:29:29.842Z,4.94
2017-12-05T12:30:33.051Z,4.99
2017-12-05T12:31:38.166Z,4.91
2017-12-05T12:32:41.130Z,4.93
2017-12-05T12:33:44.131Z,4.91
2017-12-05T12:34:47.112Z,4.89
2017-12-05T12:35:50.494Z,5.03
2017-12-05T12:36:53.345Z,5.06
2017-12-05T12:37:56.298Z,4.97
2017-12-05T12:38:59.280Z,5.00
2017-12-05T12:40:02.384Z,4.94
2017-12-05T12:41:05.472Z,4.94
2017-12-05T12:42:08.850Z,4.98
2017-12-05T12:43:11.873Z,5.00
2017-12-05T12:44:15.787Z,4.97
2017-12-05T12:45:18.842Z,4.98
2017-12-05T12:46:22.991Z,4.90
2017-12-05T12:47:25.956Z,4.89
2017-12-05T12:48:30.915Z,4.91
2017-12-05T12:49:35.413Z,4.93
2017-12-05T12:50:39.010Z,4.91
2017-12-05T12:51:43.548Z,4.91
2017-12-05T12:52:46.803Z,4.87
2017-12-05T12:53:50.480Z,4.93
2017-12-05T12:55:01.687Z,4.92
2017-12-05T12:56:05.295Z,4.86
2017-12-05T12:57:08.313Z,4.85
2017-12-05T12:58:15.706Z,4.87
2017-12-05T12:59:19.505Z,4.85
2017-12-05T13:00:23.179Z,4.87
2017-12-05T13:01:28.244Z,4.89
2017-12-05T13:02:31.463Z,4.94
2017-12-05T13:03:34.873Z,4.87
2017-12-05T13:04:37.902Z,4.89
2017-12-05T13:05:42.556Z,4.79
2017-12-05T13:06:46.029Z,4.80
2017-12-05T13:07:49.138Z,4.78
2017-12-05T13:08:52.616Z,4.87
2017-12-05T13:09:55.690Z,4.81
2017-12-05T13:10:58.885Z,4.87
2017-12-05T13:12:02.152Z,4.84
2017-12-05T13:13:05.651Z,4.78
2017-12-05T13:14:08.993Z,4.84
2017-12-05T13:15:12.134Z,4.82
2017-12-05T13:16:15.166Z,4.80
2017-12-05T13:17:18.170Z,4.77
2017-12-05T13:18:21.672Z,4.81
2017-12-05T13:19:25.120Z,4.83
2017-12-05T13:20:28.160Z,4.83
2017-12-05T13:21:31.247Z,4.86
2017-12-05T13:22:34.294Z,4.81
2017-12-05T13:23:38.150Z,4.76
2017-12-05T13:24:41.145Z,4.82
2017-12-05T13:25:45.098Z,4.84
2017-12-05T13:26:48.273Z,4.83
2017-12-05T13:27:51.222Z,4.90
2017-12-05T13:28:55.467Z,4.84
2017-12-05T13:29:58.444Z,4.85
2017-12-05T13:31:01.477Z,4.89
2017-12-05T13:32:04.902Z,4.84
2017-12-05T13:33:07.914Z,4.85
2017-12-05T13:34:12.030Z,4.87
2017-12-05T13:35:15.051Z,4.94
2017-12-05T13:36:18.102Z,4.89
2017-12-05T13:37:23.420Z,4.94
2017-12-05T13:38:26.858Z,4.86
2017-12-05T13:39:29.820Z,4.83
2017-12-05T13:40:34.446Z,4.88
2017-12-05T13:41:37.662Z,4.87
2017-12-05T13:42:40.638Z,4.83
2017-12-05T13:43:43.572Z,4.91
2017-12-05T13:44:48.019Z,4.82
2017-12-05T13:45:52.266Z,4.99
2017-12-05T13:46:55.248Z,4.87
2017-12-05T13:47:58.346Z,4.83
2017-12-05T13:49:01.364Z,4.92
2017-12-05T13:50:05.694Z,4.86
2017-12-05T13:51:09.188Z,4.82
2017-12-05T13:52:12.162Z,4.85
2017-12-05T13:53:15.425Z,4.82
2017-12-05T13:54:18.547Z,4.83
2017-12-05T13:55:21.600Z,4.94
2017-12-05T13:56:26.750Z,4.86
2017-12-05T13:57:30.251Z,4.86
2017-12-05T13:58:33.232Z,4.89
2017-12-05T13:59:36.902Z,4.89
2017-12-05T14:00:39.881Z,4.82
2017-12-05T14:01:42.873Z,5.04
2017-12-05T14:02:45.929Z,4.98
2017-12-05T14:03:49.107Z,4.93
2017-12-05T14:04:52.353Z,4.89
2017-12-05T14:05:58.397Z,4.83
2017-12-05T14:07:01.447Z,4.85
2017-12-05T14:08:04.515Z,4.89
2017-12-05T14:09:09.294Z,4.88
2017-12-05T14:10:12.540Z,4.87
2017-12-05T14:11:15.689Z,4.93
2017-12-05T14:12:24.636Z,4.96
2017-12-05T14:13:27.773Z,4.83